カイロ の空港の天気 - METARとTAF

カイロ国際空港 ( HECA / CAI ) - エジプト [カイロ
飛行場実況気象(Metar)
観測時間04/25 16:30 EET (04/25 14:30 UTC)
風向・風速北 2m/s
視程10km以上
天気現象
全天の4割程度の雲 雲底高度 760m
全天の8割程度の雲 雲底高度 2130m
気温21℃
湿度64%
気圧1011hPa
METARHECA 251430Z 36003KT 9999 SCT025 BKN070 21/14 Q1011 NOSIG
過去の天気等 Google飛行場航空写真 Wunderground天気予報

過去48時間のMETAR

飛行場予報(TAF)
発表時間: 4/25 14:10 EET (4/25 12:10 UTC)
予報対象時間: 25日15時 EET ~ 26日20時 EET
風向・風速西北西 4m/s 瞬間風速 10m/s
視程10km以上
全天の4割程度の雲 雲底高度 760m
25日15時 EET ~ 25日20時 EET に一時的に
視程5,000m
天気現象雷しゅう雨
全天の4割程度の積乱雲 雲底高度 760m
全天の8割程度の雲 雲底高度 2,130m
TAF AMD HECA 251210Z 2513/2618 30008G20KT 9999 SCT025
TEMPO 2513/2518 5000 TSSHRA SCT025CB BKN070